Time;durP1;ratioP1;P1;durP2;ratioP2;P2;SDS_P1;SDS_P2;PMS_P1;PMS_P2;Temp;Humidity;BMP_temperature;BMP_pressure;BME280_temperature;BME280_humidity;BME280_pressure;Samples;Min_cycle;Max_cycle;Signal;HPM_P1;HPM_P2
2024/03/14 00:01:41;;;;;;;9.30;7.33;;;10.50;99.90;;;;;;4997971;28;20304;-65
2024/03/14 00:04:09;;;;;;;9.70;7.90;;;10.40;99.90;;;;;;5022942;28;20270;-66
2024/03/14 00:06:39;;;;;;;8.50;7.70;;;10.50;99.90;;;;;;5012301;28;20220;-65
2024/03/14 00:09:08;;;;;;;9.13;8.23;;;10.40;99.90;;;;;;5029664;28;20217;-65
2024/03/14 00:11:37;;;;;;;10.43;8.73;;;10.40;99.90;;;;;;5034668;28;20298;-65
2024/03/14 00:14:06;;;;;;;10.07;8.47;;;10.40;99.90;;;;;;5014936;28;20292;-65
2024/03/14 00:16:35;;;;;;;14.67;9.33;;;10.40;99.90;;;;;;5015837;28;20209;-64
2024/03/14 00:19:03;;;;;;;13.93;9.97;;;10.40;99.90;;;;;;5016176;28;20267;-65
2024/03/14 00:21:32;;;;;;;13.17;9.83;;;10.50;99.90;;;;;;5014582;28;20225;-65
2024/03/14 00:27:23;;;;;;;11.53;10.17;;;10.40;99.90;;;;;;5035527;28;20224;-65
2024/03/14 00:29:55;;;;;;;14.83;10.87;;;10.50;99.90;;;;;;5000189;28;20308;-65
2024/03/14 00:32:25;;;;;;;12.57;10.20;;;10.50;99.90;;;;;;5022244;28;20208;-65
2024/03/14 00:34:53;;;;;;;11.77;10.13;;;10.50;99.90;;;;;;5002603;28;20217;-65
2024/03/14 00:37:22;;;;;;;14.87;10.70;;;10.50;99.90;;;;;;4999151;28;20251;-65
2024/03/14 00:39:50;;;;;;;13.73;11.20;;;10.50;99.90;;;;;;5015050;28;20226;-65
2024/03/14 00:42:18;;;;;;;13.70;11.43;;;10.50;99.90;;;;;;5036420;28;20221;-65
2024/03/14 00:44:47;;;;;;;16.10;11.90;;;10.50;99.90;;;;;;4998836;28;20224;-65
2024/03/14 00:47:16;;;;;;;13.30;11.70;;;10.50;99.90;;;;;;4997044;28;20219;-65
2024/03/14 00:49:44;;;;;;;16.23;11.87;;;10.50;99.90;;;;;;4999381;28;20727;-65
2024/03/14 00:52:12;;;;;;;18.50;12.17;;;10.50;99.90;;;;;;5015595;28;20209;-66
2024/03/14 00:54:40;;;;;;;16.50;11.70;;;10.50;99.90;;;;;;5006609;28;20577;-65
2024/03/14 00:57:28;;;;;;;17.73;12.43;;;10.40;99.90;;;;;;5022219;28;20231;-65
2024/03/14 00:59:58;;;;;;;16.00;11.43;;;10.40;99.90;;;;;;5032929;28;20592;-65
2024/03/14 01:02:27;;;;;;;16.10;12.60;;;10.40;99.90;;;;;;5001699;28;20193;-63
2024/03/14 01:04:55;;;;;;;15.87;11.90;;;10.40;99.90;;;;;;4998407;28;20570;-66
2024/03/14 01:07:24;;;;;;;16.63;12.67;;;10.40;99.90;;;;;;4997694;28;20248;-65
2024/03/14 01:09:52;;;;;;;16.33;12.10;;;10.40;99.90;;;;;;5039116;28;20660;-64
2024/03/14 01:12:20;;;;;;;15.97;12.30;;;10.40;99.90;;;;;;5021546;28;20236;-65
2024/03/14 01:14:49;;;;;;;17.50;11.60;;;10.40;99.90;;;;;;5030385;28;20328;-66
2024/03/14 01:17:17;;;;;;;15.03;11.97;;;10.30;99.90;;;;;;5019836;28;20224;-65
2024/03/14 01:19:46;;;;;;;15.83;11.70;;;10.40;99.90;;;;;;5015966;28;20690;-65
2024/03/14 01:22:15;;;;;;;14.93;12.23;;;10.40;99.90;;;;;;5034798;28;20213;-65
2024/03/14 01:24:43;;;;;;;15.73;12.23;;;10.40;99.90;;;;;;5029311;28;20223;-65
2024/03/14 01:27:12;;;;;;;15.50;12.13;;;10.40;99.90;;;;;;5018172;28;20220;-65
2024/03/14 01:29:41;;;;;;;14.17;11.63;;;10.40;99.90;;;;;;5031194;28;20196;-66
2024/03/14 01:32:09;;;;;;;17.07;11.67;;;10.30;99.90;;;;;;5018688;28;20205;-66
2024/03/14 01:34:36;;;;;;;14.73;11.40;;;10.40;99.90;;;;;;5032056;28;20263;-66
2024/03/14 01:37:06;;;;;;;14.77;11.50;;;10.40;99.90;;;;;;5018479;28;20231;-66
2024/03/14 01:39:35;;;;;;;15.53;12.07;;;10.40;99.90;;;;;;5039591;28;20221;-66
2024/03/14 01:42:04;;;;;;;16.77;11.97;;;10.30;99.90;;;;;;5036393;28;20247;-66
2024/03/14 01:44:40;;;;;;;15.03;11.87;;;10.40;99.90;;;;;;5019595;28;20275;-65
2024/03/14 01:47:08;;;;;;;14.73;11.60;;;10.30;99.90;;;;;;5014644;28;20655;-65
2024/03/14 01:49:36;;;;;;;15.27;11.67;;;10.30;99.90;;;;;;5035101;28;20319;-66
2024/03/14 01:52:05;;;;;;;15.73;11.87;;;10.40;99.90;;;;;;5026534;28;20212;-65
2024/03/14 01:54:34;;;;;;;17.80;11.50;;;10.30;99.90;;;;;;5031744;28;20315;-66
2024/03/14 01:57:02;;;;;;;16.30;11.77;;;10.30;99.90;;;;;;4999664;28;20275;-66
2024/03/14 01:59:31;;;;;;;13.70;10.83;;;10.30;99.90;;;;;;5030866;28;20201;-65
2024/03/14 02:01:59;;;;;;;13.53;10.77;;;10.30;99.90;;;;;;5048889;28;20647;-65
2024/03/14 02:04:28;;;;;;;14.30;11.60;;;10.30;99.90;;;;;;5021687;28;20579;-66
2024/03/14 02:06:58;;;;;;;16.47;11.83;;;10.20;99.90;;;;;;5034656;28;20268;-65
2024/03/14 02:09:30;;;;;;;15.30;11.53;;;10.20;99.90;;;;;;5021267;28;20220;-66
2024/03/14 02:12:00;;;;;;;16.83;12.33;;;10.20;99.90;;;;;;5016187;28;20275;-66
2024/03/14 02:14:28;;;;;;;15.17;11.83;;;10.20;99.90;;;;;;5024093;28;20679;-66
2024/03/14 02:16:56;;;;;;;15.30;10.93;;;10.20;99.90;;;;;;5012267;28;20544;-65
2024/03/14 02:19:25;;;;;;;14.57;11.93;;;10.10;99.90;;;;;;5019784;28;20221;-66
2024/03/14 02:21:56;;;;;;;14.90;11.83;;;10.10;99.90;;;;;;5037388;28;20578;-66
2024/03/14 02:24:25;;;;;;;15.07;11.47;;;10.10;99.90;;;;;;5020865;28;20231;-66
2024/03/14 02:26:54;;;;;;;15.10;12.20;;;10.00;99.90;;;;;;5021839;28;20216;-65
2024/03/14 02:29:23;;;;;;;15.50;12.13;;;10.00;99.90;;;;;;5049663;28;20189;-65
2024/03/14 02:31:52;;;;;;;14.50;11.33;;;10.00;99.90;;;;;;5020569;28;20287;-65
2024/03/14 02:34:20;;;;;;;16.17;12.27;;;10.00;99.90;;;;;;5051721;28;20282;-65
2024/03/14 02:36:48;;;;;;;15.70;12.07;;;9.90;99.90;;;;;;5022383;28;20537;-65
2024/03/14 02:39:18;;;;;;;14.90;11.40;;;9.90;99.90;;;;;;5022376;28;20816;-65
2024/03/14 02:41:51;;;;;;;15.83;12.07;;;9.80;99.90;;;;;;5035197;28;20225;-65
2024/03/14 02:44:38;;;;;;;16.40;11.67;;;9.80;99.90;;;;;;5034639;28;20212;-64
2024/03/14 02:47:08;;;;;;;16.00;12.03;;;9.80;99.90;;;;;;5053303;28;20205;-65
2024/03/14 02:49:38;;;;;;;13.73;11.30;;;9.70;99.90;;;;;;5023180;28;20691;-65
2024/03/14 02:52:07;;;;;;;14.03;11.87;;;9.70;99.90;;;;;;5019646;28;20231;-66
2024/03/14 02:54:35;;;;;;;16.97;11.73;;;9.70;99.90;;;;;;5039244;28;20224;-65
2024/03/14 02:57:04;;;;;;;15.63;12.20;;;9.60;99.90;;;;;;5025683;28;20225;-65
2024/03/14 02:59:33;;;;;;;16.13;12.80;;;9.70;99.90;;;;;;5021615;28;20185;-65
2024/03/14 03:02:03;;;;;;;14.10;11.57;;;9.70;99.90;;;;;;5037029;28;20247;-66
2024/03/14 03:04:31;;;;;;;16.43;11.30;;;9.70;99.90;;;;;;5021306;28;20595;-65
2024/03/14 03:07:05;;;;;;;16.73;12.20;;;9.70;99.90;;;;;;5023313;28;20216;-66
2024/03/14 03:09:37;;;;;;;15.77;12.10;;;9.60;99.90;;;;;;5024076;28;20308;-65
2024/03/14 03:12:06;;;;;;;16.83;11.77;;;9.60;99.90;;;;;;5020228;28;20225;-66
2024/03/14 03:14:35;;;;;;;14.23;11.87;;;9.60;99.90;;;;;;5033815;28;20217;-66
2024/03/14 03:17:05;;;;;;;14.10;11.17;;;9.60;99.90;;;;;;5023603;28;20189;-65
2024/03/14 03:19:36;;;;;;;20.60;11.93;;;9.60;99.90;;;;;;5021200;28;20228;-65
2024/03/14 03:22:05;;;;;;;13.83;11.60;;;9.50;99.90;;;;;;5019519;28;20598;-66
2024/03/14 03:24:32;;;;;;;14.17;11.70;;;9.50;99.90;;;;;;5027866;28;20247;-66
2024/03/14 03:27:13;;;;;;;14.57;11.03;;;9.50;99.90;;;;;;5015419;28;20225;-65
2024/03/14 03:29:41;;;;;;;14.10;11.33;;;9.50;99.90;;;;;;5027483;28;20196;-66
2024/03/14 03:32:09;;;;;;;13.57;10.73;;;9.40;99.90;;;;;;5018438;28;20193;-66
2024/03/14 03:34:37;;;;;;;13.83;10.67;;;9.40;99.90;;;;;;5018501;28;20220;-66
2024/03/14 03:37:06;;;;;;;14.03;11.07;;;9.40;99.90;;;;;;5035316;28;20213;-66
2024/03/14 03:39:33;;;;;;;16.03;10.50;;;9.30;99.90;;;;;;5019723;28;20714;-66
2024/03/14 03:42:03;;;;;;;12.93;9.83;;;9.40;99.90;;;;;;5035670;28;20227;-66
2024/03/14 03:44:30;;;;;;;12.50;10.27;;;9.30;99.90;;;;;;5032009;28;20189;-64
2024/03/14 03:46:58;;;;;;;12.47;9.67;;;9.30;99.90;;;;;;5034651;28;20184;-66
2024/03/14 03:49:27;;;;;;;13.67;10.00;;;9.30;99.90;;;;;;5051904;28;20216;-66
2024/03/14 03:51:56;;;;;;;13.30;9.80;;;9.30;99.90;;;;;;5035836;28;20239;-65
2024/03/14 03:54:23;;;;;;;11.83;10.07;;;9.20;99.90;;;;;;5035148;28;20229;-65
2024/03/14 03:56:54;;;;;;;11.77;9.87;;;9.10;99.90;;;;;;5018342;28;20243;-65
2024/03/14 03:59:22;;;;;;;10.60;9.40;;;9.20;99.90;;;;;;5036576;28;20216;-66
2024/03/14 04:01:51;;;;;;;11.27;9.23;;;9.10;99.90;;;;;;5051502;28;20231;-66
2024/03/14 04:04:19;;;;;;;12.27;9.77;;;9.10;99.90;;;;;;5019507;28;20216;-66
2024/03/14 04:06:47;;;;;;;10.50;9.37;;;9.00;99.90;;;;;;5035109;28;20231;-66
2024/03/14 04:09:16;;;;;;;10.30;8.83;;;9.00;99.90;;;;;;5053288;28;20215;-66
2024/03/14 04:11:43;;;;;;;13.43;9.27;;;9.00;99.90;;;;;;5050777;28;20320;-66
2024/03/14 04:14:12;;;;;;;11.70;8.87;;;8.90;99.90;;;;;;5049783;28;20208;-65
2024/03/14 04:16:39;;;;;;;11.07;9.13;;;8.80;99.90;;;;;;5019007;28;20228;-66
2024/03/14 04:19:07;;;;;;;9.90;8.90;;;8.80;99.90;;;;;;5051494;28;20228;-66
2024/03/14 04:21:36;;;;;;;12.53;9.37;;;8.70;99.90;;;;;;5020979;28;20228;-66
2024/03/14 04:24:06;;;;;;;10.17;8.87;;;8.70;99.90;;;;;;5031707;28;20217;-65
2024/03/14 04:26:34;;;;;;;14.97;9.30;;;8.80;99.90;;;;;;5042471;28;20631;-65
2024/03/14 04:29:03;;;;;;;11.77;8.53;;;8.70;99.90;;;;;;5002128;28;20219;-65
2024/03/14 04:31:31;;;;;;;11.40;8.67;;;8.70;99.90;;;;;;5034749;28;20227;-65
2024/03/14 04:34:00;;;;;;;9.33;8.30;;;8.70;99.90;;;;;;5035198;28;20232;-65
2024/03/14 04:36:30;;;;;;;12.27;9.27;;;8.70;99.90;;;;;;5029584;28;20219;-66
2024/03/14 04:38:58;;;;;;;12.83;8.60;;;8.70;99.90;;;;;;5018814;28;20231;-65
2024/03/14 04:41:28;;;;;;;9.63;8.63;;;8.70;99.90;;;;;;5051072;28;20551;-65
2024/03/14 04:43:56;;;;;;;11.70;8.67;;;8.70;99.90;;;;;;5050922;28;20200;-66
2024/03/14 04:46:25;;;;;;;10.77;8.83;;;8.70;99.90;;;;;;5027964;28;20216;-66
2024/03/14 04:48:53;;;;;;;11.93;8.40;;;8.60;99.90;;;;;;5050826;28;20218;-66
2024/03/14 04:51:22;;;;;;;10.00;8.10;;;8.60;99.90;;;;;;5051436;28;20231;-65
2024/03/14 04:53:50;;;;;;;11.47;8.67;;;8.50;99.90;;;;;;5051542;28;20224;-65
2024/03/14 04:56:21;;;;;;;10.57;8.77;;;8.50;99.90;;;;;;5035726;28;20208;-65
2024/03/14 04:58:50;;;;;;;10.87;8.73;;;8.50;99.90;;;;;;5053917;28;20218;-67
2024/03/14 05:01:19;;;;;;;9.67;8.53;;;8.50;99.90;;;;;;5020933;28;20768;-65
2024/03/14 05:03:47;;;;;;;10.90;8.87;;;8.60;99.90;;;;;;5018383;28;20212;-66
2024/03/14 05:06:16;;;;;;;9.70;8.53;;;8.50;99.90;;;;;;5051043;28;20307;-65
2024/03/14 05:08:45;;;;;;;11.70;8.50;;;8.50;99.90;;;;;;5039155;28;20185;-65
2024/03/14 05:11:14;;;;;;;9.83;8.17;;;8.40;99.90;;;;;;5028262;28;20897;-65
2024/03/14 05:13:43;;;;;;;11.50;8.80;;;8.40;99.90;;;;;;5015351;28;20217;-66
2024/03/14 05:16:12;;;;;;;10.60;8.30;;;8.30;99.90;;;;;;5015064;28;20221;-66
2024/03/14 05:18:40;;;;;;;8.87;7.97;;;8.30;99.90;;;;;;4998909;28;20217;-66
2024/03/14 05:21:10;;;;;;;11.13;8.03;;;8.30;99.90;;;;;;4994534;28;20232;-65
2024/03/14 05:23:40;;;;;;;10.63;8.80;;;8.30;99.90;;;;;;4999453;28;20200;-66
2024/03/14 05:26:08;;;;;;;10.40;8.70;;;8.20;99.90;;;;;;4998087;28;20200;-66
2024/03/14 05:28:36;;;;;;;9.57;8.40;;;8.20;99.90;;;;;;4998095;28;20305;-66
2024/03/14 05:31:05;;;;;;;11.03;8.50;;;8.10;99.90;;;;;;4997087;28;20664;-66
2024/03/14 05:33:35;;;;;;;11.57;8.80;;;8.00;99.90;;;;;;5008603;28;20221;-66
2024/03/14 05:36:04;;;;;;;9.60;8.47;;;8.00;99.90;;;;;;4999732;28;20680;-66
2024/03/14 05:38:32;;;;;;;9.77;8.77;;;7.90;99.90;;;;;;5014791;28;20275;-65
2024/03/14 05:41:01;;;;;;;10.73;8.20;;;7.90;99.90;;;;;;5009131;28;20649;-66
2024/03/14 05:43:29;;;;;;;10.23;9.13;;;7.80;99.90;;;;;;5034721;28;20596;-66
2024/03/14 05:45:57;;;;;;;13.73;8.97;;;7.90;99.90;;;;;;5034279;28;20683;-66
2024/03/14 05:48:26;;;;;;;10.10;8.37;;;7.80;99.90;;;;;;5001740;28;20312;-66
2024/03/14 05:50:56;;;;;;;14.30;9.17;;;7.80;99.90;;;;;;5004356;28;20241;-66
2024/03/14 05:53:28;;;;;;;11.60;8.80;;;7.70;99.90;;;;;;5051397;28;20710;-67
2024/03/14 05:55:58;;;;;;;9.27;8.33;;;7.70;99.90;;;;;;5008369;28;20615;-66
2024/03/14 05:58:28;;;;;;;15.20;8.83;;;7.70;99.90;;;;;;5018576;28;20630;-66
2024/03/14 06:00:56;;;;;;;10.30;8.90;;;7.70;99.90;;;;;;5035093;28;20228;-67
2024/03/14 06:03:25;;;;;;;12.23;9.27;;;7.70;99.90;;;;;;5002641;28;20229;-66
2024/03/14 06:05:54;;;;;;;11.63;9.00;;;7.80;99.90;;;;;;5036593;28;20227;-66
2024/03/14 06:08:22;;;;;;;12.53;9.13;;;7.80;99.90;;;;;;5021324;28;20257;-66
2024/03/14 06:10:51;;;;;;;15.07;10.10;;;7.80;99.90;;;;;;5031118;28;20224;-66
2024/03/14 06:13:19;;;;;;;14.00;9.37;;;7.80;99.90;;;;;;5038001;28;20579;-65
2024/03/14 06:15:48;;;;;;;13.73;9.37;;;7.80;99.90;;;;;;5046115;28;20323;-66
2024/03/14 06:18:19;;;;;;;11.93;8.90;;;7.90;99.90;;;;;;5021448;28;20228;-66
2024/03/14 06:20:47;;;;;;;13.03;9.37;;;7.80;99.90;;;;;;5021744;28;20633;-66
2024/03/14 06:23:16;;;;;;;12.93;9.37;;;7.70;99.90;;;;;;5036922;28;20663;-66
2024/03/14 06:25:44;;;;;;;13.13;9.67;;;7.70;99.90;;;;;;5021629;28;20706;-66
2024/03/14 06:28:12;;;;;;;12.77;9.37;;;7.70;99.90;;;;;;5053166;28;20659;-67
2024/03/14 06:34:08;;;;;;;12.80;9.27;;;7.80;99.90;;;;;;5043932;28;20907;-66
2024/03/14 06:36:41;;;;;;;10.97;9.10;;;7.80;99.90;;;;;;5018205;28;20580;-66
2024/03/14 06:39:17;;;;;;;11.60;9.37;;;7.90;99.90;;;;;;5022528;28;20259;-66
2024/03/14 06:41:50;;;;;;;13.27;9.70;;;8.00;99.90;;;;;;5037142;28;20229;-66
2024/03/14 06:44:42;;;;;;;13.87;9.10;;;8.00;99.90;;;;;;5030508;28;20536;-65
2024/03/14 06:47:11;;;;;;;13.67;8.70;;;8.10;99.90;;;;;;5049135;28;20227;-66
2024/03/14 06:49:39;;;;;;;12.37;9.23;;;8.20;99.90;;;;;;5070615;28;20308;-66
2024/03/14 06:52:09;;;;;;;10.33;8.60;;;8.20;99.90;;;;;;5035490;28;20220;-66
2024/03/14 06:54:38;;;;;;;11.53;9.00;;;8.30;99.90;;;;;;5037054;28;20228;-65
2024/03/14 06:57:09;;;;;;;9.40;8.13;;;8.30;99.90;;;;;;5052363;28;20324;-65
2024/03/14 06:59:38;;;;;;;9.17;8.27;;;8.40;99.90;;;;;;5038823;28;20275;-65
2024/03/14 07:02:07;;;;;;;9.47;7.80;;;8.40;99.90;;;;;;5052987;28;20189;-66
2024/03/14 07:04:35;;;;;;;8.30;7.50;;;8.50;99.90;;;;;;5016941;28;20324;-65
2024/03/14 07:07:04;;;;;;;7.87;7.07;;;8.50;99.90;;;;;;5017744;28;20217;-65
2024/03/14 07:09:33;;;;;;;8.27;7.47;;;8.60;99.90;;;;;;5018355;28;20224;-65
2024/03/14 07:12:01;;;;;;;7.83;7.03;;;8.60;99.90;;;;;;5036021;28;20311;-65
2024/03/14 07:14:30;;;;;;;10.50;8.13;;;8.70;99.90;;;;;;5051646;28;20232;-66
2024/03/14 07:16:58;;;;;;;7.77;6.97;;;8.80;99.90;;;;;;5053130;28;20216;-65
2024/03/14 07:19:27;;;;;;;7.60;6.90;;;8.90;99.90;;;;;;5041451;28;20208;-66
2024/03/14 07:21:56;;;;;;;7.20;6.50;;;9.00;99.90;;;;;;5040726;28;20224;-66
2024/03/14 07:24:25;;;;;;;8.17;6.67;;;9.10;99.90;;;;;;5029349;28;20263;-66
2024/03/14 07:26:54;;;;;;;7.07;6.30;;;9.30;99.90;;;;;;5047687;28;20752;-66
2024/03/14 07:29:22;;;;;;;6.40;5.90;;;9.60;99.90;;;;;;5041818;28;20196;-66
2024/03/14 07:31:51;;;;;;;5.30;4.87;;;10.00;99.90;;;;;;5013279;28;20212;-66
2024/03/14 07:34:21;;;;;;;5.27;4.83;;;10.40;99.90;;;;;;5036405;28;20224;-66
2024/03/14 07:36:49;;;;;;;5.10;4.60;;;10.80;99.90;;;;;;5032106;28;20254;-66
2024/03/14 07:42:46;;;;;;;4.40;4.00;;;11.50;99.90;;;;;;5519620;23;20230;-66
2024/03/14 07:45:17;;;;;;;4.83;3.57;;;11.80;99.90;;;;;;4976400;28;20195;-66
2024/03/14 07:47:52;;;;;;;4.13;3.80;;;11.90;99.90;;;;;;4973040;28;20234;-67
2024/03/14 07:50:22;;;;;;;5.23;3.93;;;12.20;99.90;;;;;;4995193;28;20654;-67
2024/03/14 07:53:29;;;;;;;3.97;3.67;;;12.40;99.90;;;;;;4992485;28;20607;-67
2024/03/14 07:56:01;;;;;;;3.53;3.43;;;12.40;99.90;;;;;;5009378;28;20218;-67
2024/03/14 07:58:30;;;;;;;3.10;3.00;;;12.50;99.90;;;;;;4993231;28;20218;-67
2024/03/14 08:01:35;;;;;;;3.57;3.37;;;13.00;99.90;;;;;;4994456;28;20226;-66
2024/03/14 08:04:12;;;;;;;3.37;3.23;;;13.00;99.90;;;;;;5006418;28;20217;-67
2024/03/14 08:06:44;;;;;;;3.93;3.60;;;13.20;99.90;;;;;;4976486;28;20698;-66
2024/03/14 08:09:14;;;;;;;3.27;3.10;;;13.30;99.90;;;;;;4990667;28;20214;-66
2024/03/14 08:12:02;;;;;;;3.50;3.20;;;13.40;98.00;;;;;;4975370;28;20195;-66
2024/03/14 08:14:30;;;;;;;3.00;2.90;;;13.60;98.00;;;;;;4988207;28;20747;-66
2024/03/14 08:16:59;;;;;;;3.63;3.33;;;13.70;99.10;;;;;;4994104;28;20564;-67
2024/03/14 08:19:28;;;;;;;3.70;3.40;;;13.70;91.80;;;;;;4975288;28;20312;-67
2024/03/14 08:21:57;;;;;;;3.63;3.17;;;13.70;92.50;;;;;;4975931;28;20662;-67
2024/03/14 08:24:26;;;;;;;3.63;3.37;;;13.80;84.80;;;;;;4977187;28;20726;-66
2024/03/14 08:26:55;;;;;;;3.30;3.10;;;13.70;90.80;;;;;;4996198;28;20218;-67
2024/03/14 08:29:25;;;;;;;3.00;2.80;;;13.80;93.70;;;;;;4994789;28;20213;-67
2024/03/14 08:31:59;;;;;;;3.30;3.10;;;14.10;94.30;;;;;;4994317;28;20584;-68
2024/03/14 08:34:28;;;;;;;5.93;3.23;;;14.40;67.80;;;;;;4978432;28;20688;-67
2024/03/14 08:36:57;;;;;;;3.57;2.87;;;14.60;88.00;;;;;;4991343;28;20217;-67
2024/03/14 08:39:26;;;;;;;3.40;2.80;;;14.80;61.80;;;;;;4976763;28;20222;-67
2024/03/14 08:41:54;;;;;;;3.00;2.90;;;14.80;40.80;;;;;;4960722;28;20242;-67
2024/03/14 08:47:36;;;;;;;3.10;2.70;;;14.70;58.20;;;;;;5331990;23;20247;-65
2024/03/14 08:50:05;;;;;;;3.77;3.10;;;14.80;79.80;;;;;;4944690;28;20228;-66
2024/03/14 08:52:33;;;;;;;3.00;2.70;;;14.90;45.90;;;;;;4945583;28;20232;-65
2024/03/14 08:55:05;;;;;;;2.80;2.70;;;15.00;48.90;;;;;;4938679;28;20950;-66
2024/03/14 08:57:33;;;;;;;2.87;2.67;;;15.20;51.00;;;;;;4941784;28;20238;-65
2024/03/14 09:00:02;;;;;;;3.30;2.50;;;15.30;44.60;;;;;;4941730;28;20585;-65
2024/03/14 09:02:31;;;;;;;2.63;2.53;;;15.40;51.90;;;;;;4931389;28;20204;-65
2024/03/14 09:05:00;;;;;;;2.77;2.40;;;15.70;23.10;;;;;;4927113;28;20229;-65
2024/03/14 09:07:28;;;;;;;2.70;2.43;;;15.90;12.60;;;;;;4945873;28;20229;-65
2024/03/14 09:09:57;;;;;;;2.30;2.20;;;15.70;19.80;;;;;;4942797;28;20231;-65
2024/03/14 09:12:25;;;;;;;2.27;2.13;;;15.40;21.00;;;;;;4948393;28;20673;-65
2024/03/14 09:14:54;;;;;;;2.30;2.10;;;15.40;2.60;;;;;;4930557;28;20228;-65
2024/03/14 09:17:23;;;;;;;2.00;2.00;;;15.80;1.00;;;;;;4946382;28;20303;-65
2024/03/14 09:19:52;;;;;;;2.63;2.43;;;16.30;1.00;;;;;;4950064;28;20222;-65
2024/03/14 09:22:22;;;;;;;2.30;2.20;;;16.40;1.00;;;;;;4946131;28;20251;-65
2024/03/14 09:24:50;;;;;;;2.60;2.40;;;16.20;1.00;;;;;;4947050;28;20272;-65
2024/03/14 09:27:18;;;;;;;2.43;2.33;;;16.00;1.00;;;;;;4945725;28;20230;-65
2024/03/14 09:29:47;;;;;;;2.27;2.17;;;16.10;1.00;;;;;;4935596;28;20272;-65
2024/03/14 09:32:15;;;;;;;2.30;2.10;;;16.10;1.00;;;;;;4932694;29;20204;-65
2024/03/14 09:34:43;;;;;;;2.10;2.10;;;16.30;1.00;;;;;;4949290;28;20230;-65
2024/03/14 09:37:12;;;;;;;2.90;2.20;;;16.30;1.00;;;;;;4946187;28;20233;-65
2024/03/14 09:39:40;;;;;;;2.33;2.20;;;16.10;1.00;;;;;;4942012;28;20261;-65
2024/03/14 09:42:09;;;;;;;3.17;2.23;;;15.90;1.00;;;;;;4946504;28;20316;-65
2024/03/14 09:44:38;;;;;;;2.23;1.97;;;16.20;1.00;;;;;;4947573;28;20260;-65
2024/03/14 09:47:06;;;;;;;4.07;2.10;;;16.30;1.00;;;;;;4936276;29;20220;-65
2024/03/14 09:49:35;;;;;;;2.43;1.80;;;16.50;99.90;;;;;;4945356;28;20555;-65
2024/03/14 09:52:05;;;;;;;2.20;2.10;;;16.50;99.90;;;;;;4946836;28;20250;-65
2024/03/14 09:54:33;;;;;;;2.13;2.03;;;16.30;99.90;;;;;;4942861;28;20234;-65
2024/03/14 09:57:02;;;;;;;3.03;2.07;;;16.30;1.00;;;;;;4931783;28;20236;-66
2024/03/14 09:59:30;;;;;;;2.10;2.00;;;16.30;99.90;;;;;;4945024;28;20200;-65
2024/03/14 10:01:58;;;;;;;2.20;1.97;;;16.40;1.00;;;;;;4928375;29;20662;-65
2024/03/14 10:04:28;;;;;;;2.67;2.10;;;16.60;1.00;;;;;;4946478;28;20627;-66
2024/03/14 10:06:57;;;;;;;2.17;1.97;;;16.90;99.90;;;;;;4926168;29;20217;-66
2024/03/14 10:09:26;;;;;;;2.03;1.93;;;17.20;1.00;;;;;;4941714;28;20679;-66
2024/03/14 10:12:00;;;;;;;2.80;1.87;;;17.70;1.00;;;;;;4944696;28;20228;-66
2024/03/14 10:14:32;;;;;;;3.27;1.90;;;18.10;1.00;;;;;;4929817;28;20197;-65
2024/03/14 10:17:01;;;;;;;2.20;2.10;;;18.40;99.90;;;;;;4946846;28;20260;-65
2024/03/14 10:19:30;;;;;;;2.20;2.00;;;18.70;1.00;;;;;;4942772;28;20799;-65
2024/03/14 10:22:01;;;;;;;2.37;1.80;;;18.90;99.90;;;;;;4943144;28;20228;-65
2024/03/14 10:24:29;;;;;;;2.00;1.90;;;18.70;1.00;;;;;;4927513;29;20251;-66
2024/03/14 10:26:58;;;;;;;2.20;2.07;;;19.00;99.90;;;;;;4925519;29;20231;-65
2024/03/14 10:29:32;;;;;;;2.40;2.10;;;19.00;99.90;;;;;;4945267;28;20235;-66
2024/03/14 10:32:01;;;;;;;2.20;2.10;;;18.90;99.90;;;;;;4920654;28;20250;-66
2024/03/14 10:34:32;;;;;;;1.90;1.80;;;19.00;99.90;;;;;;4943483;28;20758;-66
2024/03/14 10:37:00;;;;;;;1.93;1.83;;;19.40;1.00;;;;;;4945407;28;20374;-66
2024/03/14 10:39:29;;;;;;;1.60;1.60;;;19.50;42.60;;;;;;4932010;29;20234;-66
2024/03/14 10:41:58;;;;;;;2.77;1.93;;;19.70;99.90;;;;;;4932027;29;20239;-66
2024/03/14 10:44:26;;;;;;;2.17;1.70;;;19.90;99.90;;;;;;4925901;28;20222;-65
2024/03/14 10:46:55;;;;;;;1.40;1.40;;;20.00;1.00;;;;;;4946782;28;20251;-65
2024/03/14 10:49:23;;;;;;;3.00;1.80;;;20.10;96.20;;;;;;4947032;28;20227;-65
2024/03/14 10:51:51;;;;;;;4.30;1.73;;;19.80;99.90;;;;;;4916221;28;20225;-66
2024/03/14 10:54:23;;;;;;;1.77;1.40;;;20.10;99.90;;;;;;4926794;29;20221;-65
2024/03/14 10:56:54;;;;;;;3.33;1.50;;;19.90;1.00;;;;;;4945286;28;20289;-65
2024/03/14 10:59:23;;;;;;;1.80;1.60;;;19.80;99.90;;;;;;4931480;29;20224;-64
2024/03/14 11:01:54;;;;;;;1.70;1.60;;;20.10;1.00;;;;;;4947409;28;20307;-65
2024/03/14 11:04:26;;;;;;;1.77;1.67;;;19.90;99.90;;;;;;4934334;29;20323;-65
2024/03/14 11:06:55;;;;;;;1.40;1.40;;;20.10;1.00;;;;;;4945060;28;20249;-64
2024/03/14 11:09:23;;;;;;;3.43;1.40;;;20.20;99.90;;;;;;4932754;29;20225;-65
2024/03/14 11:11:52;;;;;;;3.60;1.70;;;20.30;99.90;;;;;;4946437;28;20606;-65
2024/03/14 11:14:21;;;;;;;2.83;1.30;;;20.30;99.90;;;;;;4949180;28;20189;-65
2024/03/14 11:16:49;;;;;;;2.57;1.53;;;20.80;99.90;;;;;;4928395;28;20956;-64
2024/03/14 11:19:18;;;;;;;1.50;1.50;;;20.60;99.90;;;;;;4932546;29;20228;-65
2024/03/14 11:21:46;;;;;;;1.57;1.47;;;20.70;1.00;;;;;;4927194;28;20320;-65
2024/03/14 11:24:16;;;;;;;1.70;1.50;;;21.00;99.90;;;;;;4942216;28;20240;-65
2024/03/14 11:26:44;;;;;;;1.90;1.50;;;21.40;99.90;;;;;;4932922;28;20201;-65
2024/03/14 11:29:15;;;;;;;1.80;1.70;;;21.30;1.00;;;;;;4934631;29;20203;-64
2024/03/14 11:31:45;;;;;;;2.40;1.33;;;21.30;1.00;;;;;;4945455;28;20218;-65
2024/03/14 11:34:17;;;;;;;1.67;1.57;;;21.20;1.00;;;;;;4933439;29;20256;-64
2024/03/14 11:36:46;;;;;;;1.57;1.37;;;20.70;1.00;;;;;;4950415;28;20249;-64
2024/03/14 11:39:20;;;;;;;1.83;1.73;;;20.00;99.90;;;;;;4931880;29;20742;-65
2024/03/14 11:41:49;;;;;;;1.53;1.37;;;19.90;99.90;;;;;;4948914;28;20274;-64
2024/03/14 11:44:20;;;;;;;1.30;1.20;;;19.90;99.90;;;;;;4948143;28;20584;-64
2024/03/14 11:46:54;;;;;;;1.60;1.50;;;20.20;1.00;;;;;;4934031;29;20238;-64
2024/03/14 11:49:23;;;;;;;4.20;1.47;;;20.30;99.90;;;;;;4928607;28;20864;-64
2024/03/14 11:51:51;;;;;;;1.60;1.20;;;20.60;1.00;;;;;;4929391;29;20226;-64
2024/03/14 11:54:21;;;;;;;1.43;1.20;;;20.90;1.00;;;;;;4910782;28;20228;-64
2024/03/14 11:56:50;;;;;;;1.30;1.30;;;21.00;1.00;;;;;;4929052;28;20224;-64
2024/03/14 11:59:22;;;;;;;2.13;1.33;;;20.40;1.00;;;;;;4927719;28;20678;-64
2024/03/14 12:01:54;;;;;;;1.60;1.50;;;20.00;1.00;;;;;;4928364;28;20699;-64
2024/03/14 12:04:27;;;;;;;1.60;1.50;;;20.10;1.00;;;;;;4930246;28;20234;-64
2024/03/14 12:06:58;;;;;;;1.20;1.20;;;20.30;1.00;;;;;;4943719;28;20230;-64
2024/03/14 12:09:30;;;;;;;2.40;1.57;;;20.70;1.00;;;;;;4927443;29;20231;-64
2024/03/14 12:11:59;;;;;;;1.20;1.20;;;20.50;1.00;;;;;;4944456;28;20232;-65
2024/03/14 12:14:28;;;;;;;1.47;1.47;;;20.30;1.00;;;;;;4928128;28;20192;-64
2024/03/14 12:16:57;;;;;;;5.73;2.03;;;20.20;1.00;;;;;;4928470;29;20316;-64
2024/03/14 12:19:25;;;;;;;1.20;1.20;;;20.30;29.20;;;;;;4925197;29;20234;-64
2024/03/14 12:22:00;;;;;;;1.50;1.40;;;20.40;1.00;;;;;;4930189;29;20239;-64
2024/03/14 12:24:29;;;;;;;1.50;1.40;;;20.10;1.00;;;;;;4926467;28;20302;-64
2024/03/14 12:26:58;;;;;;;1.50;1.50;;;19.80;99.90;;;;;;4944309;28;20254;-65
2024/03/14 12:29:26;;;;;;;1.27;1.27;;;19.40;99.90;;;;;;4926113;28;20204;-63
2024/03/14 12:31:55;;;;;;;2.53;1.40;;;19.50;1.00;;;;;;4946283;28;20200;-64
2024/03/14 12:34:24;;;;;;;1.70;1.60;;;19.60;99.90;;;;;;4931523;29;20243;-64
2024/03/14 12:36:53;;;;;;;2.87;1.70;;;19.70;1.00;;;;;;4928436;29;20647;-64
2024/03/14 12:39:25;;;;;;;1.83;1.40;;;19.50;1.00;;;;;;4927339;29;20678;-65
2024/03/14 12:41:55;;;;;;;2.60;1.60;;;19.30;99.90;;;;;;4932045;28;20232;-64
2024/03/14 12:44:24;;;;;;;3.03;1.80;;;19.80;1.00;;;;;;4945631;28;20224;-64
2024/03/14 12:46:52;;;;;;;2.00;1.90;;;20.50;1.00;;;;;;4925118;29;20251;-64
2024/03/14 12:49:21;;;;;;;1.60;1.60;;;20.70;99.90;;;;;;4928229;28;20221;-65
2024/03/14 12:51:55;;;;;;;3.87;2.10;;;20.80;19.70;;;;;;4943145;28;20274;-64
2024/03/14 12:54:24;;;;;;;1.97;1.80;;;20.80;1.00;;;;;;4930688;28;20770;-64
2024/03/14 12:56:55;;;;;;;4.10;1.43;;;20.90;1.00;;;;;;4928200;28;20240;-63
2024/03/14 12:59:24;;;;;;;2.57;1.60;;;21.00;1.00;;;;;;4941754;28;20218;-64
2024/03/14 13:02:03;;;;;;;2.53;1.40;;;20.70;99.90;;;;;;4928550;28;20677;-64
2024/03/14 13:04:32;;;;;;;1.50;1.40;;;20.40;99.90;;;;;;4926514;28;20244;-64
2024/03/14 13:07:01;;;;;;;1.83;1.40;;;19.70;1.00;;;;;;4941670;28;20691;-64
2024/03/14 13:09:30;;;;;;;3.27;1.80;;;19.20;1.00;;;;;;4926243;29;20240;-64
2024/03/14 13:12:07;;;;;;;1.43;1.40;;;19.30;1.00;;;;;;4927253;28;20216;-64